Terminal Aerodrome Forecast
Issued by NWS Amarillo, TX

Home | Current Version | Previous Version | Text Only | Print | Product List | Glossary On
Versions: 1 2 3 4 5 6 7 8 9 10 11 12 13 14
000
FTUS44 KAMA 280520
TAFGUY
TAF
KGUY 280520Z 2806/2906 19017KT P6SM VCTS SCT060CB OVC150
      TEMPO 2806/2808 VRB35KT 6SM -TSRA BKN040CB
     FM280800 35013KT P6SM VCTS SCT060CB BKN120
     FM281500 03013KT P6SM SCT150=

USA.gov is the U.S. government's official web portal to all federal, state and local government web resources and services.